Terminal Aerodrome Forecast
Issued by NWS Kansas City/Pleasant Hill, MO

Home | Current Version | Previous Version | Text Only | Print | Product List | Glossary On
Versions: 1 2 3 4 5 6 7 8 9 10 11 12 13 14 15 16 17 18 19
704
FTUS43 KEAX 161729
TAFMCI
TAF
KMCI 161729Z 1618/1718 14008KT P6SM FEW250
     FM170600 17013KT P6SM OVC020
     FM170900 17015KT P6SM OVC015
     FM171200 17014G25KT 5SM -DZ OVC007=

USA.gov is the U.S. government's official web portal to all federal, state and local government web resources and services.